Arroyo, PR (00714)

3:24 PM AST on August 21, 2014 (GMT -0400)
Urb. Arroyo Villages | Change Station
CLOSE
Current Station
Personal Weather Station
Location: Bo. Ancones, Arroyo, PR
Elevation: 120 ft
Nearby Weather Stations
Active Advisory: Flash Flood Watch

Elev 120 ft 17.99 °N, 66.05 °W | Updated 4 minutes ago

Scattered Clouds
Scattered Clouds
89.6 °F
Feels Like 101 °F
N
12.0
Wind Variable Wind from East
Gusts 15.0 mph

Today
High -- | Low -- °F
--% Chance of Precip.
Yesterday
High -- | Low -- °F
Precip. -- in
6:07 AM 6:46 PM
Waning Crescent, 12% visible
Pressure 29.93 in
Visibility 10.0 miles
Clouds Few 2100 ft
Scattered Clouds 3300 ft
Scattered Clouds 6500 ft
Heat Index 101 °F
Dew Point 76 °F
Humidity 64%
Rainfall 0.00 in
Snow Depth Not available.
UV 7 out of 12
Pollen Not available.
Air Quality Not available.
Flu Activity Not available.
METAR TJSJ 211856Z 05011KT 10SM FEW021 SCT033 SCT065 31/26 A2993 RMK AO2 SLP135 T03060256

More Conditions Fewer Conditions

Pressure 29.93 in
Visibility 10.0 miles
Clouds Few 2100 ft
Scattered Clouds 3300 ft
Scattered Clouds 6500 ft
Heat Index 101 °F
Dew Point 76 °F
Humidity 64%
Rainfall 0.00 in
Snow Depth Not available.
UV 7 out of 12
Pollen Not available.
Air Quality Not available.
Flu Activity Not available.
METAR TJSJ 211856Z 05011KT 10SM FEW021 SCT033 SCT065 31/26 A2993 RMK AO2 SLP135 T03060256

More Conditions Fewer Conditions

10-Day Weather Forecast

Almanac

Astronomy

Aug. 21, 2014 Rise Set
Actual Time 6:07 AM AST 6:46 PM AST
Civil Twilight 5:45 AM AST 7:08 PM AST
Nautical Twilight 5:19 AM AST 7:35 PM AST
Astronomical Twilight 4:52 AM AST 8:01 PM AST
Moon 2:48 AM AST 4:00 PM AST
Length of Visible Light 13h 23m
Length of Day
12h 38m
Tomorrow will be 0m 56s shorter.
Waning Crescent, 12% of the Moon is Illuminated
Today
Waning Crescent
Aug 25
New
Sep 2
First Quarter
Sep 8
Full
Sep 15
Last Quarter

Community

WunderPhotos

Upload Photos

1,746,008 photos uploaded!

WunderBlogs® & News

Nearby

Snow Depth

Station Depth Elevation
No new snow has been reported.

Earthquake Activity

City Distance Mag. Time & Date
No recent earthquake activity has been reported nearby.
Minimum magnitude displayed is 2.5.

Coastal Water Temperatures

Place Temperature
Magueyes Islands, PR 86.0 °F
Yabucoa Harbor, PR 84.9 °F

Nearby Weather Stations